sensor_id;sensor_type;location;lat;lon;timestamp;pressure;altitude;pressure_sealevel;temperature;humidity
71059;BME280;70265;47.576;19.270;2024-01-30T00:00:20;101087.34;;;-1.62;100.00
71059;BME280;70265;47.576;19.270;2024-01-30T00:01:21;101081.34;;;-1.63;100.00
71059;BME280;70265;47.576;19.270;2024-01-30T00:02:25;101083.06;;;-1.63;100.00
71059;BME280;70265;47.576;19.270;2024-01-30T00:03:26;101091.66;;;-1.64;100.00
71059;BME280;70265;47.576;19.270;2024-01-30T00:04:30;101088.34;;;-1.71;100.00
71059;BME280;70265;47.576;19.270;2024-01-30T00:05:31;101087.53;;;-1.76;100.00
71059;BME280;70265;47.576;19.270;2024-01-30T00:06:34;101082.44;;;-1.77;100.00
71059;BME280;70265;47.576;19.270;2024-01-30T00:07:35;101090.16;;;-1.80;100.00
71059;BME280;70265;47.576;19.270;2024-01-30T00:08:39;101091.84;;;-1.78;100.00
71059;BME280;70265;47.576;19.270;2024-01-30T00:09:40;101087.56;;;-1.77;100.00
71059;BME280;70265;47.576;19.270;2024-01-30T00:10:43;101078.16;;;-1.78;100.00
71059;BME280;70265;47.576;19.270;2024-01-30T00:11:47;101078.16;;;-1.80;100.00
71059;BME280;70265;47.576;19.270;2024-01-30T00:12:51;101079.09;;;-1.84;100.00
71059;BME280;70265;47.576;19.270;2024-01-30T00:13:53;101071.38;;;-1.85;100.00
71059;BME280;70265;47.576;19.270;2024-01-30T00:14:56;101074.00;;;-1.88;100.00
71059;BME280;70265;47.576;19.270;2024-01-30T00:15:58;101085.19;;;-1.91;100.00
71059;BME280;70265;47.576;19.270;2024-01-30T00:17:02;101080.09;;;-1.95;100.00
71059;BME280;70265;47.576;19.270;2024-01-30T00:18:03;101078.38;;;-1.95;100.00
71059;BME280;70265;47.576;19.270;2024-01-30T00:19:10;101077.56;;;-1.98;100.00
71059;BME280;70265;47.576;19.270;2024-01-30T00:20:11;101084.38;;;-1.94;100.00
71059;BME280;70265;47.576;19.270;2024-01-30T00:21:14;101082.66;;;-1.97;100.00
71059;BME280;70265;47.576;19.270;2024-01-30T00:22:15;101078.41;;;-1.98;100.00
71059;BME280;70265;47.576;19.270;2024-01-30T00:23:19;101079.31;;;-2.02;100.00
71059;BME280;70265;47.576;19.270;2024-01-30T00:24:20;101081.88;;;-2.02;100.00
71059;BME280;70265;47.576;19.270;2024-01-30T00:25:23;101082.78;;;-2.06;100.00
71059;BME280;70265;47.576;19.270;2024-01-30T00:26:24;101082.78;;;-2.06;100.00
71059;BME280;70265;47.576;19.270;2024-01-30T00:27:30;101079.38;;;-2.07;100.00
71059;BME280;70265;47.576;19.270;2024-01-30T00:28:31;101080.31;;;-2.14;100.00
71059;BME280;70265;47.576;19.270;2024-01-30T00:29:34;101076.03;;;-2.12;100.00
71059;BME280;70265;47.576;19.270;2024-01-30T00:30:35;101083.72;;;-2.12;100.00
71059;BME280;70265;47.576;19.270;2024-01-30T00:31:39;101077.69;;;-2.11;100.00
71059;BME280;70265;47.576;19.270;2024-01-30T00:32:40;101085.44;;;-2.12;100.00
71059;BME280;70265;47.576;19.270;2024-01-30T00:33:43;101088.91;;;-2.16;100.00
71059;BME280;70265;47.576;19.270;2024-01-30T00:34:44;101083.78;;;-2.18;100.00
71059;BME280;70265;47.576;19.270;2024-01-30T00:35:48;101087.16;;;-2.11;100.00
71059;BME280;70265;47.576;19.270;2024-01-30T00:36:49;101085.41;;;-2.11;100.00
71059;BME280;70265;47.576;19.270;2024-01-30T00:37:52;101089.78;;;-2.16;100.00
71059;BME280;70265;47.576;19.270;2024-01-30T00:38:54;101086.31;;;-2.12;100.00
71059;BME280;70265;47.576;19.270;2024-01-30T00:39:57;101085.41;;;-2.09;100.00
71059;BME280;70265;47.576;19.270;2024-01-30T00:40:58;101090.50;;;-2.04;100.00
71059;BME280;70265;47.576;19.270;2024-01-30T00:42:02;101085.38;;;-2.06;100.00
71059;BME280;70265;47.576;19.270;2024-01-30T00:43:06;101085.38;;;-2.04;100.00
71059;BME280;70265;47.576;19.270;2024-01-30T00:44:09;101089.59;;;-2.02;100.00
71059;BME280;70265;47.576;19.270;2024-01-30T00:45:13;101094.88;;;-2.11;100.00
71059;BME280;70265;47.576;19.270;2024-01-30T00:46:17;101093.19;;;-2.15;100.00
71059;BME280;70265;47.576;19.270;2024-01-30T00:47:18;101086.38;;;-2.19;100.00
71059;BME280;70265;47.576;19.270;2024-01-30T00:48:21;101090.72;;;-2.23;100.00
71059;BME280;70265;47.576;19.270;2024-01-30T00:49:22;101084.69;;;-2.20;100.00
71059;BME280;70265;47.576;19.270;2024-01-30T00:50:26;101086.41;;;-2.21;100.00
71059;BME280;70265;47.576;19.270;2024-01-30T00:51:27;101084.72;;;-2.23;100.00
71059;BME280;70265;47.576;19.270;2024-01-30T00:52:30;101086.47;;;-2.25;100.00
71059;BME280;70265;47.576;19.270;2024-01-30T00:53:32;101083.94;;;-2.28;100.00
71059;BME280;70265;47.576;19.270;2024-01-30T00:54:36;101080.63;;;-2.39;100.00
71059;BME280;70265;47.576;19.270;2024-01-30T00:55:37;101078.97;;;-2.42;100.00
71059;BME280;70265;47.576;19.270;2024-01-30T00:56:37;101081.50;;;-2.40;100.00
71059;BME280;70265;47.576;19.270;2024-01-30T00:57:41;101082.38;;;-2.43;100.00
71059;BME280;70265;47.576;19.270;2024-01-30T00:58:46;101090.06;;;-2.41;100.00
71059;BME280;70265;47.576;19.270;2024-01-30T00:59:50;101088.34;;;-2.39;100.00
71059;BME280;70265;47.576;19.270;2024-01-30T01:00:50;101086.59;;;-2.37;100.00
71059;BME280;70265;47.576;19.270;2024-01-30T01:01:54;101085.78;;;-2.39;100.00
71059;BME280;70265;47.576;19.270;2024-01-30T01:02:55;101086.63;;;-2.40;100.00
71059;BME280;70265;47.576;19.270;2024-01-30T01:03:58;101083.19;;;-2.39;100.00
71059;BME280;70265;47.576;19.270;2024-01-30T01:04:59;101090.06;;;-2.40;100.00
71059;BME280;70265;47.576;19.270;2024-01-30T01:06:04;101084.06;;;-2.40;100.00
71059;BME280;70265;47.576;19.270;2024-01-30T01:07:05;101084.97;;;-2.44;100.00
71059;BME280;70265;47.576;19.270;2024-01-30T01:08:09;101090.94;;;-2.42;100.00
71059;BME280;70265;47.576;19.270;2024-01-30T01:09:10;101079.00;;;-2.46;100.00
71059;BME280;70265;47.576;19.270;2024-01-30T01:10:14;101083.28;;;-2.45;100.00
71059;BME280;70265;47.576;19.270;2024-01-30T01:11:16;101080.72;;;-2.45;100.00
71059;BME280;70265;47.576;19.270;2024-01-30T01:12:19;101076.38;;;-2.42;100.00
71059;BME280;70265;47.576;19.270;2024-01-30T01:13:20;101083.28;;;-2.47;100.00
71059;BME280;70265;47.576;19.270;2024-01-30T01:14:26;101076.47;;;-2.49;100.00
71059;BME280;70265;47.576;19.270;2024-01-30T01:15:27;101084.16;;;-2.49;100.00
71059;BME280;70265;47.576;19.270;2024-01-30T01:16:31;101078.13;;;-2.45;100.00
71059;BME280;70265;47.576;19.270;2024-01-30T01:17:32;101079.00;;;-2.48;100.00
71059;BME280;70265;47.576;19.270;2024-01-30T01:18:33;101077.25;;;-2.44;100.00
71059;BME280;70265;47.576;19.270;2024-01-30T01:19:36;101085.00;;;-2.46;100.00
71059;BME280;70265;47.576;19.270;2024-01-30T01:20:37;101081.56;;;-2.46;100.00
71059;BME280;70265;47.576;19.270;2024-01-30T01:21:40;101084.13;;;-2.48;100.00
71059;BME280;70265;47.576;19.270;2024-01-30T01:22:41;101078.28;;;-2.61;100.00
71059;BME280;70265;47.576;19.270;2024-01-30T01:23:45;101074.84;;;-2.58;100.00
71059;BME280;70265;47.576;19.270;2024-01-30T01:24:46;101080.00;;;-2.60;100.00
71059;BME280;70265;47.576;19.270;2024-01-30T01:25:47;101075.66;;;-2.54;100.00
71059;BME280;70265;47.576;19.270;2024-01-30T01:26:50;101076.50;;;-2.54;100.00
71059;BME280;70265;47.576;19.270;2024-01-30T01:27:51;101077.34;;;-2.53;100.00
71059;BME280;70265;47.576;19.270;2024-01-30T01:28:54;101081.59;;;-2.49;100.00
71059;BME280;70265;47.576;19.270;2024-01-30T01:29:58;101076.53;;;-2.57;100.00
71059;BME280;70265;47.576;19.270;2024-01-30T01:31:02;101079.09;;;-2.55;100.00
71059;BME280;70265;47.576;19.270;2024-01-30T01:32:05;101075.69;;;-2.58;100.00
71059;BME280;70265;47.576;19.270;2024-01-30T01:33:09;101079.16;;;-2.62;100.00
71059;BME280;70265;47.576;19.270;2024-01-30T01:34:11;101078.31;;;-2.65;100.00
71059;BME280;70265;47.576;19.270;2024-01-30T01:35:15;101077.53;;;-2.72;100.00
71059;BME280;70265;47.576;19.270;2024-01-30T01:36:15;101076.66;;;-2.68;100.00
71059;BME280;70265;47.576;19.270;2024-01-30T01:37:19;101073.22;;;-2.68;100.00
71059;BME280;70265;47.576;19.270;2024-01-30T01:38:22;101075.75;;;-2.64;100.00
71059;BME280;70265;47.576;19.270;2024-01-30T01:39:26;101074.09;;;-2.66;100.00
71059;BME280;70265;47.576;19.270;2024-01-30T01:40:27;101078.41;;;-2.70;100.00
71059;BME280;70265;47.576;19.270;2024-01-30T01:41:31;101068.16;;;-2.74;100.00
71059;BME280;70265;47.576;19.270;2024-01-30T01:42:32;101070.72;;;-2.74;100.00
71059;BME280;70265;47.576;19.270;2024-01-30T01:43:32;101073.28;;;-2.73;100.00
71059;BME280;70265;47.576;19.270;2024-01-30T01:44:36;101072.41;;;-2.72;100.00
71059;BME280;70265;47.576;19.270;2024-01-30T01:45:40;101068.13;;;-2.70;100.00
71059;BME280;70265;47.576;19.270;2024-01-30T01:46:44;101063.81;;;-2.68;100.00
71059;BME280;70265;47.576;19.270;2024-01-30T01:47:47;101071.47;;;-2.63;100.00
71059;BME280;70265;47.576;19.270;2024-01-30T01:48:51;101071.44;;;-2.62;100.00
71059;BME280;70265;47.576;19.270;2024-01-30T01:49:52;101072.34;;;-2.63;100.00
71059;BME280;70265;47.576;19.270;2024-01-30T01:50:56;101068.94;;;-2.68;100.00
71059;BME280;70265;47.576;19.270;2024-01-30T01:51:58;101068.97;;;-2.69;100.00
71059;BME280;70265;47.576;19.270;2024-01-30T01:52:59;101063.06;;;-2.76;100.00
71059;BME280;70265;47.576;19.270;2024-01-30T01:54:04;101060.53;;;-2.80;100.00
71059;BME280;70265;47.576;19.270;2024-01-30T01:55:07;101060.53;;;-2.82;100.00
71059;BME280;70265;47.576;19.270;2024-01-30T01:56:11;101063.97;;;-2.83;100.00
71059;BME280;70265;47.576;19.270;2024-01-30T01:57:12;101062.28;;;-2.84;100.00
71059;BME280;70265;47.576;19.270;2024-01-30T01:58:16;101064.84;;;-2.84;100.00
71059;BME280;70265;47.576;19.270;2024-01-30T01:59:19;101063.19;;;-2.89;100.00
71059;BME280;70265;47.576;19.270;2024-01-30T02:00:23;101060.66;;;-2.94;100.00
71059;BME280;70265;47.576;19.270;2024-01-30T02:01:31;101061.44;;;-2.89;100.00
71059;BME280;70265;47.576;19.270;2024-01-30T02:02:36;101058.88;;;-2.89;100.00
71059;BME280;70265;47.576;19.270;2024-01-30T02:03:38;101055.47;;;-2.86;100.00
71059;BME280;70265;47.576;19.270;2024-01-30T02:04:41;101064.00;;;-2.86;100.00
71059;BME280;70265;47.576;19.270;2024-01-30T02:05:42;101063.16;;;-2.86;100.00
71059;BME280;70265;47.576;19.270;2024-01-30T02:06:46;101059.75;;;-2.87;100.00
71059;BME280;70265;47.576;19.270;2024-01-30T02:07:47;101063.19;;;-2.91;100.00
71059;BME280;70265;47.576;19.270;2024-01-30T02:08:48;101060.63;;;-2.89;100.00
71059;BME280;70265;47.576;19.270;2024-01-30T02:09:51;101057.22;;;-2.93;100.00
71059;BME280;70265;47.576;19.270;2024-01-30T02:10:52;101049.50;;;-2.91;100.00
71059;BME280;70265;47.576;19.270;2024-01-30T02:11:56;101054.63;;;-2.90;100.00
71059;BME280;70265;47.576;19.270;2024-01-30T02:12:57;101048.59;;;-2.89;100.00
71059;BME280;70265;47.576;19.270;2024-01-30T02:14:02;101048.59;;;-2.86;100.00
71059;BME280;70265;47.576;19.270;2024-01-30T02:15:13;101052.00;;;-2.84;100.00
71059;BME280;70265;47.576;19.270;2024-01-30T02:16:17;101054.56;;;-2.84;100.00
71059;BME280;70265;47.576;19.270;2024-01-30T02:17:20;101058.03;;;-2.86;100.00
71059;BME280;70265;47.576;19.270;2024-01-30T02:18:24;101055.47;;;-2.88;100.00
71059;BME280;70265;47.576;19.270;2024-01-30T02:19:25;101060.59;;;-2.88;100.00
71059;BME280;70265;47.576;19.270;2024-01-30T02:20:30;101053.78;;;-2.92;100.00
71059;BME280;70265;47.576;19.270;2024-01-30T02:21:34;101059.78;;;-2.91;100.00
71059;BME280;70265;47.576;19.270;2024-01-30T02:22:38;101059.81;;;-2.96;100.00
71059;BME280;70265;47.576;19.270;2024-01-30T02:23:39;101054.69;;;-2.97;100.00
71059;BME280;70265;47.576;19.270;2024-01-30T02:24:44;101052.16;;;-3.02;100.00
71059;BME280;70265;47.576;19.270;2024-01-30T02:25:45;101064.16;;;-3.01;100.00
71059;BME280;70265;47.576;19.270;2024-01-30T02:26:48;101055.59;;;-3.01;100.00
71059;BME280;70265;47.576;19.270;2024-01-30T02:27:50;101057.25;;;-2.99;100.00
71059;BME280;70265;47.576;19.270;2024-01-30T02:28:51;101068.41;;;-3.00;100.00
71059;BME280;70265;47.576;19.270;2024-01-30T02:29:55;101066.72;;;-2.99;100.00
71059;BME280;70265;47.576;19.270;2024-01-30T02:30:55;101062.44;;;-3.00;100.00
71059;BME280;70265;47.576;19.270;2024-01-30T02:31:59;101067.53;;;-2.99;100.00
71059;BME280;70265;47.576;19.270;2024-01-30T02:33:00;101064.16;;;-3.01;100.00
71059;BME280;70265;47.576;19.270;2024-01-30T02:34:04;101062.47;;;-3.05;100.00
71059;BME280;70265;47.576;19.270;2024-01-30T02:35:05;101064.19;;;-3.04;100.00
71059;BME280;70265;47.576;19.270;2024-01-30T02:36:09;101062.50;;;-3.08;100.00
71059;BME280;70265;47.576;19.270;2024-01-30T02:37:12;101060.75;;;-3.03;100.00
71059;BME280;70265;47.576;19.270;2024-01-30T02:38:16;101057.38;;;-3.08;100.00
71059;BME280;70265;47.576;19.270;2024-01-30T02:39:17;101053.03;;;-3.01;100.00
71059;BME280;70265;47.576;19.270;2024-01-30T02:40:20;101056.44;;;-3.02;100.00
71059;BME280;70265;47.576;19.270;2024-01-30T02:41:21;101057.28;;;-3.02;100.00
71059;BME280;70265;47.576;19.270;2024-01-30T02:42:22;101059.06;;;-3.07;100.00
71059;BME280;70265;47.576;19.270;2024-01-30T02:43:25;101059.06;;;-3.07;100.00
71059;BME280;70265;47.576;19.270;2024-01-30T02:44:26;101059.94;;;-3.10;100.00
71059;BME280;70265;47.576;19.270;2024-01-30T02:45:30;101063.34;;;-3.08;100.00
71059;BME280;70265;47.576;19.270;2024-01-30T02:46:31;101059.94;;;-3.08;100.00
71059;BME280;70265;47.576;19.270;2024-01-30T02:47:34;101064.19;;;-3.04;100.00
71059;BME280;70265;47.576;19.270;2024-01-30T02:48:35;101059.00;;;-3.02;100.00
71059;BME280;70265;47.576;19.270;2024-01-30T02:49:39;101059.91;;;-3.03;100.00
71059;BME280;70265;47.576;19.270;2024-01-30T02:50:40;101057.25;;;-2.99;100.00
71059;BME280;70265;47.576;19.270;2024-01-30T02:51:44;101055.59;;;-3.00;100.00
71059;BME280;70265;47.576;19.270;2024-01-30T02:52:47;101062.44;;;-3.02;100.00
71059;BME280;70265;47.576;19.270;2024-01-30T02:53:51;101057.34;;;-3.03;100.00
71059;BME280;70265;47.576;19.270;2024-01-30T02:54:52;101059.84;;;-2.99;100.00
71059;BME280;70265;47.576;19.270;2024-01-30T02:55:55;101063.28;;;-3.00;100.00
71059;BME280;70265;47.576;19.270;2024-01-30T02:56:56;101054.75;;;-3.03;100.00
71059;BME280;70265;47.576;19.270;2024-01-30T02:58:00;101055.63;;;-3.04;100.00
71059;BME280;70265;47.576;19.270;2024-01-30T02:59:01;101055.66;;;-3.09;100.00
71059;BME280;70265;47.576;19.270;2024-01-30T03:00:06;101062.50;;;-3.08;100.00
71059;BME280;70265;47.576;19.270;2024-01-30T03:01:09;101066.00;;;-3.17;100.00
71059;BME280;70265;47.576;19.270;2024-01-30T03:02:13;101057.44;;;-3.19;100.00
71059;BME280;70265;47.576;19.270;2024-01-30T03:03:14;101054.03;;;-3.19;100.00
71059;BME280;70265;47.576;19.270;2024-01-30T03:04:17;101058.38;;;-3.24;100.00
71059;BME280;70265;47.576;19.270;2024-01-30T03:05:19;101058.38;;;-3.26;100.00
71059;BME280;70265;47.576;19.270;2024-01-30T03:06:20;101058.34;;;-3.23;100.00
71059;BME280;70265;47.576;19.270;2024-01-30T03:07:23;101054.06;;;-3.21;100.00
71059;BME280;70265;47.576;19.270;2024-01-30T03:08:27;101055.75;;;-3.18;100.00
71059;BME280;70265;47.576;19.270;2024-01-30T03:09:30;101056.63;;;-3.21;100.00
71059;BME280;70265;47.576;19.270;2024-01-30T03:10:31;101054.03;;;-3.19;100.00
71059;BME280;70265;47.576;19.270;2024-01-30T03:11:35;101059.16;;;-3.19;100.00
71059;BME280;70265;47.576;19.270;2024-01-30T03:12:36;101058.31;;;-3.20;100.00
71059;BME280;70265;47.576;19.270;2024-01-30T03:13:37;101052.31;;;-3.19;100.00
71059;BME280;70265;47.576;19.270;2024-01-30T03:14:40;101055.75;;;-3.18;100.00
71059;BME280;70265;47.576;19.270;2024-01-30T03:15:41;101063.41;;;-3.14;100.00
71059;BME280;70265;47.576;19.270;2024-01-30T03:16:45;101057.38;;;-3.11;100.00
71059;BME280;70265;47.576;19.270;2024-01-30T03:17:46;101059.94;;;-3.10;100.00
71059;BME280;70265;47.576;19.270;2024-01-30T03:18:49;101052.25;;;-3.11;100.00
71059;BME280;70265;47.576;19.270;2024-01-30T03:19:50;101056.53;;;-3.12;100.00
71059;BME280;70265;47.576;19.270;2024-01-30T03:20:54;101059.94;;;-3.06;100.00
71059;BME280;70265;47.576;19.270;2024-01-30T03:21:55;101059.00;;;-2.99;100.00
71059;BME280;70265;47.576;19.270;2024-01-30T03:23:00;101064.03;;;-2.92;100.00
71059;BME280;70265;47.576;19.270;2024-01-30T03:24:04;101057.13;;;-2.84;100.00
71059;BME280;70265;47.576;19.270;2024-01-30T03:25:08;101060.50;;;-2.79;100.00
71059;BME280;70265;47.576;19.270;2024-01-30T03:26:09;101063.03;;;-2.74;100.00
71059;BME280;70265;47.576;19.270;2024-01-30T03:27:13;101062.13;;;-2.72;100.00
71059;BME280;70265;47.576;19.270;2024-01-30T03:28:14;101062.94;;;-2.68;100.00
71059;BME280;70265;47.576;19.270;2024-01-30T03:29:17;101063.81;;;-2.66;100.00
71059;BME280;70265;47.576;19.270;2024-01-30T03:30:18;101069.75;;;-2.64;100.00
71059;BME280;70265;47.576;19.270;2024-01-30T03:31:22;101061.19;;;-2.65;100.00
71059;BME280;70265;47.576;19.270;2024-01-30T03:32:22;101057.78;;;-2.65;100.00
71059;BME280;70265;47.576;19.270;2024-01-30T03:33:26;101060.38;;;-2.67;100.00
71059;BME280;70265;47.576;19.270;2024-01-30T03:34:28;101054.53;;;-2.79;100.00
71059;BME280;70265;47.576;19.270;2024-01-30T03:35:32;101053.75;;;-2.87;100.00
71059;BME280;70265;47.576;19.270;2024-01-30T03:36:33;101053.91;;;-3.04;100.00
71059;BME280;70265;47.576;19.270;2024-01-30T03:37:36;101054.81;;;-3.13;100.00
71059;BME280;70265;47.576;19.270;2024-01-30T03:38:37;101055.72;;;-3.14;100.00
71059;BME280;70265;47.576;19.270;2024-01-30T03:39:43;101050.59;;;-3.18;100.00
71059;BME280;70265;47.576;19.270;2024-01-30T03:40:44;101050.66;;;-3.24;100.00
71059;BME280;70265;47.576;19.270;2024-01-30T03:41:48;101049.78;;;-3.20;100.00
71059;BME280;70265;47.576;19.270;2024-01-30T03:42:50;101049.75;;;-3.19;100.00
71059;BME280;70265;47.576;19.270;2024-01-30T03:43:53;101054.13;;;-3.27;100.00
71059;BME280;70265;47.576;19.270;2024-01-30T03:44:55;101056.69;;;-3.27;100.00
71059;BME280;70265;47.576;19.270;2024-01-30T03:46:01;101054.13;;;-3.30;100.00
71059;BME280;70265;47.576;19.270;2024-01-30T03:47:02;101048.19;;;-3.35;100.00
71059;BME280;70265;47.576;19.270;2024-01-30T03:48:06;101046.47;;;-3.36;100.00
71059;BME280;70265;47.576;19.270;2024-01-30T03:49:07;101039.59;;;-3.31;100.00
71059;BME280;70265;47.576;19.270;2024-01-30T03:50:11;101037.06;;;-3.34;100.00
71059;BME280;70265;47.576;19.270;2024-01-30T03:51:12;101035.31;;;-3.33;100.00
71059;BME280;70265;47.576;19.270;2024-01-30T03:52:16;101043.81;;;-3.25;100.00
71059;BME280;70265;47.576;19.270;2024-01-30T03:53:17;101036.16;;;-3.27;100.00
71059;BME280;70265;47.576;19.270;2024-01-30T03:54:21;101041.22;;;-3.22;100.00
71059;BME280;70265;47.576;19.270;2024-01-30T03:55:24;101037.81;;;-3.21;100.00
71059;BME280;70265;47.576;19.270;2024-01-30T03:56:28;101037.78;;;-3.20;100.00
71059;BME280;70265;47.576;19.270;2024-01-30T03:57:29;101038.63;;;-3.18;100.00
71059;BME280;70265;47.576;19.270;2024-01-30T03:58:33;101045.47;;;-3.18;100.00
71059;BME280;70265;47.576;19.270;2024-01-30T03:59:33;101040.34;;;-3.18;100.00
71059;BME280;70265;47.576;19.270;2024-01-30T04:00:37;101042.91;;;-3.18;100.00
71059;BME280;70265;47.576;19.270;2024-01-30T04:01:38;101039.44;;;-3.13;100.00
71059;BME280;70265;47.576;19.270;2024-01-30T04:02:41;101039.50;;;-3.19;100.00
71059;BME280;70265;47.576;19.270;2024-01-30T04:03:42;101047.19;;;-3.17;100.00
71059;BME280;70265;47.576;19.270;2024-01-30T04:04:46;101044.59;;;-3.16;100.00
71059;BME280;70265;47.576;19.270;2024-01-30T04:05:47;101035.22;;;-3.17;100.00
71059;BME280;70265;47.576;19.270;2024-01-30T04:06:50;101034.38;;;-3.20;100.00
71059;BME280;70265;47.576;19.270;2024-01-30T04:07:51;101033.50;;;-3.19;100.00
71059;BME280;70265;47.576;19.270;2024-01-30T04:08:52;101030.97;;;-3.21;100.00
71059;BME280;70265;47.576;19.270;2024-01-30T04:09:55;101041.22;;;-3.22;100.00
71059;BME280;70265;47.576;19.270;2024-01-30T04:11:03;101043.78;;;-3.22;100.00
71059;BME280;70265;47.576;19.270;2024-01-30T04:12:07;101037.78;;;-3.18;100.00
71059;BME280;70265;47.576;19.270;2024-01-30T04:13:08;101033.47;;;-3.16;100.00
71059;BME280;70265;47.576;19.270;2024-01-30T04:14:11;101030.94;;;-3.18;100.00
71059;BME280;70265;47.576;19.270;2024-01-30T04:15:13;101032.63;;;-3.14;100.00
71059;BME280;70265;47.576;19.270;2024-01-30T04:16:20;101032.56;;;-3.09;100.00
71059;BME280;70265;47.576;19.270;2024-01-30T04:17:21;101030.84;;;-3.07;100.00
71059;BME280;70265;47.576;19.270;2024-01-30T04:18:25;101037.66;;;-3.06;100.00
71059;BME280;70265;47.576;19.270;2024-01-30T04:19:26;101036.78;;;-3.05;100.00
71059;BME280;70265;47.576;19.270;2024-01-30T04:20:29;101034.22;;;-3.03;100.00
71059;BME280;70265;47.576;19.270;2024-01-30T04:21:30;101027.38;;;-3.06;100.00
71059;BME280;70265;47.576;19.270;2024-01-30T04:22:34;101028.28;;;-3.07;100.00
71059;BME280;70265;47.576;19.270;2024-01-30T04:23:35;101031.69;;;-3.08;100.00
71059;BME280;70265;47.576;19.270;2024-01-30T04:24:38;101033.47;;;-3.16;100.00
71059;BME280;70265;47.576;19.270;2024-01-30T04:25:40;101033.50;;;-3.19;100.00
71059;BME280;70265;47.576;19.270;2024-01-30T04:26:46;101024.22;;;-3.32;100.00
71059;BME280;70265;47.576;19.270;2024-01-30T04:27:47;101036.16;;;-3.30;100.00
71059;BME280;70265;47.576;19.270;2024-01-30T04:28:51;101034.44;;;-3.29;100.00
71059;BME280;70265;47.576;19.270;2024-01-30T04:29:52;101029.38;;;-3.35;100.00
71059;BME280;70265;47.576;19.270;2024-01-30T04:30:55;101027.66;;;-3.35;100.00
71059;BME280;70265;47.576;19.270;2024-01-30T04:31:56;101034.50;;;-3.35;100.00
71059;BME280;70265;47.576;19.270;2024-01-30T04:32:59;101035.34;;;-3.35;100.00
71059;BME280;70265;47.576;19.270;2024-01-30T04:34:00;101037.06;;;-3.34;100.00
71059;BME280;70265;47.576;19.270;2024-01-30T04:35:07;101036.22;;;-3.34;100.00
71059;BME280;70265;47.576;19.270;2024-01-30T04:36:08;101038.75;;;-3.31;100.00
71059;BME280;70265;47.576;19.270;2024-01-30T04:37:13;101038.75;;;-3.31;100.00
71059;BME280;70265;47.576;19.270;2024-01-30T04:38:14;101035.34;;;-3.30;100.00
71059;BME280;70265;47.576;19.270;2024-01-30T04:39:17;101038.72;;;-3.28;100.00
71059;BME280;70265;47.576;19.270;2024-01-30T04:40:22;101039.56;;;-3.28;100.00
71059;BME280;70265;47.576;19.270;2024-01-30T04:41:26;101030.13;;;-3.24;100.00
71059;BME280;70265;47.576;19.270;2024-01-30T04:42:34;101036.13;;;-3.24;100.00
71059;BME280;70265;47.576;19.270;2024-01-30T04:43:37;101031.81;;;-3.20;100.00
71059;BME280;70265;47.576;19.270;2024-01-30T04:44:38;101035.22;;;-3.18;100.00
71059;BME280;70265;47.576;19.270;2024-01-30T04:45:42;101035.22;;;-3.18;100.00
71059;BME280;70265;47.576;19.270;2024-01-30T04:46:43;101031.81;;;-3.20;100.00
71059;BME280;70265;47.576;19.270;2024-01-30T04:47:46;101032.69;;;-3.21;100.00
71059;BME280;70265;47.576;19.270;2024-01-30T04:48:47;101040.38;;;-3.21;100.00
71059;BME280;70265;47.576;19.270;2024-01-30T04:49:51;101038.63;;;-3.19;100.00
71059;BME280;70265;47.576;19.270;2024-01-30T04:50:52;101034.41;;;-3.23;100.00
71059;BME280;70265;47.576;19.270;2024-01-30T04:51:56;101041.25;;;-3.24;100.00
71059;BME280;70265;47.576;19.270;2024-01-30T04:52:58;101045.53;;;-3.26;100.00
71059;BME280;70265;47.576;19.270;2024-01-30T04:54:04;101046.34;;;-3.18;100.00
71059;BME280;70265;47.576;19.270;2024-01-30T04:55:07;101042.00;;;-3.11;100.00
71059;BME280;70265;47.576;19.270;2024-01-30T04:56:11;101046.25;;;-3.07;100.00
71059;BME280;70265;47.576;19.270;2024-01-30T04:57:12;101047.06;;;-3.05;100.00
71059;BME280;70265;47.576;19.270;2024-01-30T04:58:18;101042.84;;;-3.11;100.00
71059;BME280;70265;47.576;19.270;2024-01-30T04:59:19;101040.28;;;-3.12;100.00
71059;BME280;70265;47.576;19.270;2024-01-30T05:00:22;101043.72;;;-3.13;100.00
71059;BME280;70265;47.576;19.270;2024-01-30T05:01:23;101051.44;;;-3.16;100.00
71059;BME280;70265;47.576;19.270;2024-01-30T05:02:24;101046.34;;;-3.18;100.00
71059;BME280;70265;47.576;19.270;2024-01-30T05:03:27;101049.75;;;-3.19;100.00
71059;BME280;70265;47.576;19.270;2024-01-30T05:04:28;101041.19;;;-3.18;100.00
71059;BME280;70265;47.576;19.270;2024-01-30T05:05:32;101047.22;;;-3.20;100.00
71059;BME280;70265;47.576;19.270;2024-01-30T05:06:33;101045.47;;;-3.20;100.00
71059;BME280;70265;47.576;19.270;2024-01-30T05:07:37;101046.34;;;-3.18;100.00
71059;BME280;70265;47.576;19.270;2024-01-30T05:08:37;101043.72;;;-3.15;100.00
71059;BME280;70265;47.576;19.270;2024-01-30T05:09:41;101048.03;;;-3.18;100.00
71059;BME280;70265;47.576;19.270;2024-01-30T05:10:42;101047.22;;;-3.20;100.00
71059;BME280;70265;47.576;19.270;2024-01-30T05:11:49;101048.94;;;-3.22;100.00
71059;BME280;70265;47.576;19.270;2024-01-30T05:12:50;101050.69;;;-3.27;100.00
71059;BME280;70265;47.576;19.270;2024-01-30T05:13:56;101055.84;;;-3.30;100.00
71059;BME280;70265;47.576;19.270;2024-01-30T05:14:57;101047.31;;;-3.32;100.00
71059;BME280;70265;47.576;19.270;2024-01-30T05:16:02;101049.91;;;-3.40;100.00
71059;BME280;70265;47.576;19.270;2024-01-30T05:17:04;101057.59;;;-3.35;100.00
71059;BME280;70265;47.576;19.270;2024-01-30T05:18:08;101049.03;;;-3.34;100.00
71059;BME280;70265;47.576;19.270;2024-01-30T05:19:09;101057.59;;;-3.35;100.00